Airfield :
LOGIN :

Register | Disclaimer

   EN    FR    IT 

 










Legend :    VFR   Marginal VFR   IFR   Intensive IFR   Very Intensive IFR
Visi :
Ceiling :
>= 8 km
>= 3000ft
5 to 8 km
1000 to 3000 ft
1500m to 5 km
500 to 1000 ft
800 to 1500m
200 to 500 ft
< 800m
< 200 ft
Symbols :   Thunderstorms  Fog  Heavy snow  Heavy precipitations  Wind > 20 kt
SIGMETs :     Misc.  Thunderstorms  Icing  Turbulence  Mountain Waves  Volcanic Ashes






- Airport Elevation : 13 ft
- IATA code : OST


EBOS - Oostend bruges Int.

CURRENT METAR :
  • 150320Z 20008KT 3500 -DZ BR BKN006 BKN018 14/12 Q1004 NOSIG

EXPIRED METARs :
  • 150250Z 20008KT 9999 BKN016 14/12 Q1004 TEMPO BKN014
  • 150220Z 19007KT 160V220 9999 SCT018 14/12 Q1004 TEMPO BKN014
  • 150150Z 20008KT 9999 SCT018 14/12 Q1004 TEMPO BKN014
  • 150120Z 20009KT 9999 SCT018 14/13 Q1004 TEMPO BKN014
  • 150050Z 21010KT 9999 BKN018 15/13 Q1004 TEMPO BKN014

TAF TAF EBOS
Valid from the 15 at 00:00 until the 16 at 06:00 UTC


142302Z 1500/1606 19009KT 9999 FEW020
PROB30
TEMPO 1507/1514 4000 RA SHRA
TEMPO 1604/1606 4000 RA BKN012



MET'MAP, your aeronautical weather chart ! - Copyright ORBIFLY December 2007 - Disclaimer

ORBIFLY MET'MAP TEAM :

Programming & Development : Alexandra Zaïnal
Concept & Development : Baudouin d'Aumeries
Co-Development & Prog : Marc-Olivier Méhu
Technical & hardware support : Manuel Goepfert

Contact : metmap@orbifly.com




SOURCES & CREDITS :

   NOAA